createdAt,value
2022-12-26T00:01:24.910Z,112.70
2022-12-26T00:03:52.495Z,110.45
2022-12-26T00:06:23.194Z,111.07
2022-12-26T00:08:51.604Z,101.82
2022-12-26T00:11:19.837Z,99.78
2022-12-26T00:13:47.102Z,109.03
2022-12-26T00:16:20.599Z,99.18
2022-12-26T00:18:47.968Z,100.32
2022-12-26T00:21:17.417Z,95.25
2022-12-26T00:23:48.019Z,90.43
2022-12-26T00:26:18.694Z,93.70
2022-12-26T00:28:46.809Z,94.30
2022-12-26T00:31:19.270Z,160.40
2022-12-26T00:33:46.715Z,133.98
2022-12-26T00:36:17.297Z,126.35
2022-12-26T00:38:45.553Z,114.47
2022-12-26T00:41:14.473Z,106.32
2022-12-26T00:43:42.239Z,110.65
2022-12-26T00:46:10.339Z,99.18
2022-12-26T00:48:37.730Z,98.90
2022-12-26T00:51:06.183Z,94.68
2022-12-26T00:53:33.867Z,90.15
2022-12-26T00:56:01.616Z,92.93
2022-12-26T00:58:29.261Z,94.45
2022-12-26T01:01:25.492Z,96.68
2022-12-26T01:03:53.030Z,88.87
2022-12-26T01:06:20.621Z,87.28
2022-12-26T01:08:47.859Z,93.55
2022-12-26T01:11:36.861Z,87.25
2022-12-26T01:14:04.740Z,85.90
2022-12-26T01:16:32.311Z,80.68
2022-12-26T01:18:59.508Z,76.47
2022-12-26T01:21:26.994Z,78.38
2022-12-26T01:23:55.362Z,68.15
2022-12-26T01:26:25.286Z,59.45
2022-12-26T01:28:53.263Z,61.17
2022-12-26T01:31:21.963Z,59.58
2022-12-26T01:33:50.037Z,59.33
2022-12-26T01:36:18.439Z,76.25
2022-12-26T01:38:45.997Z,69.55
2022-12-26T01:41:17.708Z,61.20
2022-12-26T01:44:07.787Z,60.83
2022-12-26T01:46:42.400Z,56.50
2022-12-26T01:49:27.621Z,52.08
2022-12-26T01:51:59.587Z,48.30
2022-12-26T01:54:41.252Z,49.38
2022-12-26T01:57:15.387Z,48.13
2022-12-26T01:59:44.654Z,43.70
2022-12-26T02:02:12.374Z,33.97
2022-12-26T02:05:03.112Z,35.03
2022-12-26T02:07:32.738Z,32.80
2022-12-26T02:10:00.194Z,32.17
2022-12-26T02:12:38.381Z,34.25
2022-12-26T02:15:11.098Z,33.80
2022-12-26T02:17:40.321Z,33.53
2022-12-26T02:20:19.812Z,36.72
2022-12-26T02:23:08.851Z,35.90
2022-12-26T02:26:03.452Z,37.13
2022-12-26T02:29:01.468Z,39.08
2022-12-26T02:31:47.007Z,37.25
2022-12-26T02:34:36.555Z,41.47
2022-12-26T02:37:43.612Z,45.50
2022-12-26T02:40:26.454Z,44.95
2022-12-26T02:43:03.962Z,46.08
2022-12-26T02:45:59.549Z,41.10
2022-12-26T02:48:49.947Z,37.85
2022-12-26T02:51:54.790Z,43.03
2022-12-26T02:54:55.797Z,42.85
2022-12-26T02:58:04.853Z,38.92
2022-12-26T03:00:55.494Z,38.15
2022-12-26T03:03:47.608Z,39.38
2022-12-26T03:06:49.635Z,41.17
2022-12-26T03:09:46.683Z,41.05
2022-12-26T03:12:59.472Z,42.00
2022-12-26T03:15:51.552Z,38.17
2022-12-26T03:18:57.756Z,48.28
2022-12-26T03:21:10.594Z,45.15
2022-12-26T03:23:41.397Z,42.20
2022-12-26T03:26:35.617Z,38.55
2022-12-26T03:29:22.079Z,44.30
2022-12-26T03:31:49.553Z,44.15
2022-12-26T03:34:19.670Z,38.13
2022-12-26T03:37:00.481Z,33.13
2022-12-26T03:40:48.012Z,33.15
2022-12-26T03:44:20.138Z,33.47
2022-12-26T03:47:37.036Z,32.78
2022-12-26T03:50:47.953Z,30.73
2022-12-26T03:53:41.729Z,29.52
2022-12-26T03:56:35.495Z,32.95
2022-12-26T03:59:29.401Z,27.75
2022-12-26T04:02:23.559Z,27.70
2022-12-26T04:05:13.632Z,27.67
2022-12-26T04:08:05.294Z,24.63
2022-12-26T04:10:58.613Z,27.23
2022-12-26T04:14:09.272Z,27.20
2022-12-26T04:17:00.171Z,28.15
2022-12-26T04:19:27.643Z,31.63
2022-12-26T04:22:17.560Z,33.38
2022-12-26T04:25:14.936Z,34.78
2022-12-26T04:28:01.404Z,32.35
2022-12-26T04:30:52.099Z,28.95
2022-12-26T04:33:53.177Z,27.20
2022-12-26T04:36:49.458Z,32.13
2022-12-26T04:39:40.229Z,38.63
2022-12-26T04:42:27.813Z,37.67
2022-12-26T04:44:57.605Z,41.50
2022-12-26T04:47:25.735Z,42.05
2022-12-26T04:50:11.572Z,43.47
2022-12-26T04:53:01.440Z,40.30
2022-12-26T04:55:33.524Z,49.05
2022-12-26T04:58:01.098Z,47.00
2022-12-26T05:00:29.228Z,44.22
2022-12-26T05:03:19.103Z,41.42
2022-12-26T05:06:08.561Z,38.33
2022-12-26T05:09:00.829Z,39.20
2022-12-26T05:11:29.822Z,41.33
2022-12-26T05:13:58.340Z,43.80
2022-12-26T05:16:45.587Z,41.42
2022-12-26T05:19:33.962Z,37.42
2022-12-26T05:22:21.678Z,40.85
2022-12-26T05:25:08.222Z,35.92
2022-12-26T05:27:57.146Z,34.38
2022-12-26T05:30:25.101Z,35.28
2022-12-26T05:33:11.382Z,33.65
2022-12-26T05:35:39.887Z,34.47
2022-12-26T05:38:08.241Z,37.75
2022-12-26T05:40:36.526Z,32.65
2022-12-26T05:43:03.756Z,31.15
2022-12-26T05:45:32.763Z,32.15
2022-12-26T05:48:03.497Z,42.40
2022-12-26T05:50:31.163Z,39.03
2022-12-26T05:52:59.573Z,90.82
2022-12-26T05:55:27.413Z,45.78
2022-12-26T05:57:54.597Z,47.72
2022-12-26T06:00:22.953Z,50.00
2022-12-26T06:02:50.216Z,52.55
2022-12-26T06:05:18.286Z,49.05
2022-12-26T06:07:45.542Z,50.55
2022-12-26T06:10:13.599Z,47.70
2022-12-26T06:12:40.819Z,73.32
2022-12-26T06:15:08.853Z,63.75
2022-12-26T06:17:36.172Z,76.75
2022-12-26T06:20:04.013Z,80.90
2022-12-26T06:22:31.751Z,55.67
2022-12-26T06:24:59.690Z,64.18
2022-12-26T06:27:26.843Z,56.28
2022-12-26T06:29:54.387Z,68.75
2022-12-26T06:32:21.541Z,73.85
2022-12-26T06:34:49.184Z,95.88
2022-12-26T06:37:17.084Z,94.28
2022-12-26T06:39:44.162Z,104.53
2022-12-26T06:42:11.679Z,122.78
2022-12-26T06:44:38.854Z,73.78
2022-12-26T06:47:06.436Z,76.88
2022-12-26T06:49:33.612Z,71.43
2022-12-26T06:52:01.202Z,77.93
2022-12-26T06:54:28.437Z,60.63
2022-12-26T06:56:55.960Z,51.00
2022-12-26T06:59:23.256Z,53.40
2022-12-26T07:01:50.826Z,53.33
2022-12-26T07:04:18.246Z,53.03
2022-12-26T07:06:45.659Z,53.67
2022-12-26T07:09:17.138Z,53.05
2022-12-26T07:11:50.348Z,45.85
2022-12-26T07:14:18.218Z,44.47
2022-12-26T07:16:46.559Z,35.22
2022-12-26T07:19:17.490Z,32.10
2022-12-26T07:21:45.382Z,35.45
2022-12-26T07:24:18.748Z,37.72
2022-12-26T07:26:47.346Z,37.53
2022-12-26T07:29:15.343Z,49.00
2022-12-26T07:31:43.010Z,46.97
2022-12-26T07:34:10.333Z,50.55
2022-12-26T07:36:38.064Z,46.38
2022-12-26T07:39:05.360Z,47.63
2022-12-26T07:41:51.867Z,53.38
2022-12-26T07:44:19.108Z,54.15
2022-12-26T07:46:49.558Z,54.47
2022-12-26T07:49:18.259Z,60.95
2022-12-26T07:51:45.745Z,35.85
2022-12-26T07:54:13.244Z,22.60
2022-12-26T07:56:41.418Z,22.75
2022-12-26T07:59:13.737Z,22.88
2022-12-26T08:01:42.301Z,20.30
2022-12-26T08:04:11.859Z,18.10
2022-12-26T08:06:39.585Z,18.88
2022-12-26T08:09:06.904Z,19.83
2022-12-26T08:11:35.796Z,21.75
2022-12-26T08:14:03.406Z,18.50
2022-12-26T08:16:31.619Z,25.55
2022-12-26T08:18:59.056Z,51.92
2022-12-26T08:21:26.610Z,42.63
2022-12-26T08:23:53.871Z,63.80
2022-12-26T08:26:23.381Z,48.38
2022-12-26T08:28:51.896Z,28.90
2022-12-26T08:31:21.085Z,24.50
2022-12-26T08:33:49.438Z,24.25
2022-12-26T08:36:19.361Z,21.98
2022-12-26T08:38:46.699Z,22.60
2022-12-26T08:41:15.167Z,29.33
2022-12-26T08:46:30.182Z,21.35
2022-12-26T08:48:57.724Z,27.08
2022-12-26T08:51:26.087Z,34.53
2022-12-26T08:53:55.115Z,36.53
2022-12-26T08:56:27.276Z,28.58
2022-12-26T08:58:55.094Z,28.25
2022-12-26T09:01:24.789Z,26.10
2022-12-26T09:03:54.812Z,20.85
2022-12-26T09:06:22.944Z,15.93
2022-12-26T09:08:50.952Z,14.88
2022-12-26T09:11:22.143Z,10.45
2022-12-26T09:13:50.128Z,10.05
2022-12-26T09:16:23.353Z,7.90
2022-12-26T09:18:59.461Z,7.40
2022-12-26T09:21:28.815Z,6.78
2022-12-26T09:24:06.244Z,6.85
2022-12-26T09:26:34.669Z,6.63
2022-12-26T09:29:02.572Z,6.45
2022-12-26T09:31:34.950Z,6.97
2022-12-26T09:34:07.004Z,8.35
2022-12-26T09:36:38.350Z,8.82
2022-12-26T09:39:06.542Z,6.45
2022-12-26T09:41:55.159Z,6.93
2022-12-26T09:44:42.853Z,5.95
2022-12-26T09:47:25.504Z,6.85
2022-12-26T09:50:01.808Z,8.35
2022-12-26T09:52:53.293Z,6.68
2022-12-26T09:55:45.542Z,7.30
2022-12-26T09:58:26.162Z,6.50
2022-12-26T10:01:32.665Z,5.47
2022-12-26T10:04:02.666Z,5.25
2022-12-26T10:07:13.237Z,6.72
2022-12-26T10:09:51.674Z,9.43
2022-12-26T10:12:18.921Z,10.57
2022-12-26T10:14:55.054Z,8.95
2022-12-26T10:17:42.805Z,10.50
2022-12-26T10:20:44.107Z,10.13
2022-12-26T10:23:30.084Z,7.70
2022-12-26T10:26:04.029Z,7.85
2022-12-26T10:28:43.566Z,8.43
2022-12-26T10:31:27.334Z,9.55
2022-12-26T10:34:10.453Z,7.63
2022-12-26T10:36:47.282Z,7.85
2022-12-26T10:39:42.519Z,6.75
2022-12-26T10:42:29.851Z,6.97
2022-12-26T10:44:58.701Z,6.95
2022-12-26T10:47:38.044Z,6.05
2022-12-26T10:50:06.246Z,7.25
2022-12-26T10:52:39.152Z,7.80
2022-12-26T10:55:29.271Z,7.13
2022-12-26T10:57:55.963Z,7.65
2022-12-26T11:00:26.995Z,6.97
2022-12-26T11:03:21.375Z,7.97
2022-12-26T11:06:09.143Z,7.85
2022-12-26T11:08:49.681Z,8.90
2022-12-26T11:11:24.521Z,9.27
2022-12-26T11:14:02.178Z,10.52
2022-12-26T11:16:38.625Z,9.25
2022-12-26T11:19:06.398Z,9.68
2022-12-26T11:21:34.529Z,9.52
2022-12-26T11:24:21.315Z,8.75
2022-12-26T11:29:21.936Z,8.00
2022-12-26T11:31:59.946Z,9.40
2022-12-26T11:34:35.343Z,8.27
2022-12-26T11:37:04.932Z,5.90
2022-12-26T11:39:37.901Z,7.07
2022-12-26T11:42:13.052Z,8.80
2022-12-26T11:44:45.213Z,10.75
2022-12-26T11:47:15.952Z,10.40
2022-12-26T11:50:11.894Z,10.23
2022-12-26T11:52:53.081Z,9.00
2022-12-26T11:55:24.237Z,8.45
2022-12-26T11:58:06.885Z,6.68
2022-12-26T12:00:41.935Z,6.93
2022-12-26T12:03:35.745Z,7.22
2022-12-26T12:06:29.959Z,7.20
2022-12-26T12:09:06.067Z,8.38
2022-12-26T12:12:04.854Z,7.50
2022-12-26T12:15:18.623Z,7.20
2022-12-26T12:18:01.922Z,6.80
2022-12-26T12:20:52.311Z,7.28
2022-12-26T12:23:47.289Z,9.82
2022-12-26T12:27:04.594Z,8.77
2022-12-26T12:29:38.596Z,7.63
2022-12-26T12:32:37.801Z,8.50
2022-12-26T12:35:14.629Z,10.93
2022-12-26T12:38:24.823Z,9.45
2022-12-26T12:41:16.893Z,8.93
2022-12-26T12:43:44.171Z,7.82
2022-12-26T12:46:42.754Z,9.25
2022-12-26T12:49:18.865Z,8.93
2022-12-26T12:51:58.832Z,9.35
2022-12-26T12:54:53.613Z,8.32
2022-12-26T12:57:35.157Z,8.40
2022-12-26T13:00:04.954Z,8.88
2022-12-26T13:02:36.666Z,8.60
2022-12-26T13:05:28.521Z,7.15
2022-12-26T13:08:23.227Z,6.60
2022-12-26T13:10:59.506Z,7.05
2022-12-26T13:13:42.688Z,6.00
2022-12-26T13:16:16.900Z,6.82
2022-12-26T13:18:57.858Z,7.22
2022-12-26T13:21:26.917Z,6.88
2022-12-26T13:24:25.741Z,6.55
2022-12-26T13:27:16.057Z,8.82
2022-12-26T13:29:46.359Z,6.35
2022-12-26T13:32:26.274Z,6.78
2022-12-26T13:35:00.022Z,7.15
2022-12-26T13:37:39.583Z,7.07
2022-12-26T13:40:20.557Z,9.50
2022-12-26T13:43:13.541Z,10.98
2022-12-26T13:45:41.250Z,12.10
2022-12-26T13:48:17.235Z,14.27
2022-12-26T13:50:55.226Z,15.98
2022-12-26T13:53:26.569Z,14.23
2022-12-26T13:55:57.747Z,11.48
2022-12-26T13:58:52.809Z,10.77
2022-12-26T14:01:55.460Z,9.95
2022-12-26T14:04:32.295Z,8.95
2022-12-26T14:07:02.731Z,11.63
2022-12-26T14:09:57.477Z,11.32
2022-12-26T14:12:40.363Z,9.18
2022-12-26T14:15:21.009Z,13.93
2022-12-26T14:18:03.578Z,14.85
2022-12-26T14:21:09.567Z,12.27
2022-12-26T14:23:53.382Z,8.25
2022-12-26T14:26:31.735Z,8.57
2022-12-26T14:29:41.107Z,9.27
2022-12-26T14:32:34.248Z,8.88
2022-12-26T14:35:16.072Z,9.35
2022-12-26T14:37:46.690Z,9.40
2022-12-26T14:40:35.553Z,9.60
2022-12-26T14:43:17.806Z,14.20
2022-12-26T14:45:51.378Z,14.70
2022-12-26T14:48:18.767Z,14.57
2022-12-26T14:50:57.103Z,14.35
2022-12-26T14:53:29.894Z,11.18
2022-12-26T14:56:02.458Z,12.60
2022-12-26T14:58:32.418Z,11.45
2022-12-26T15:01:09.233Z,11.13
2022-12-26T15:03:58.395Z,11.32
2022-12-26T15:07:04.620Z,13.48
2022-12-26T15:09:40.816Z,14.85
2022-12-26T15:12:44.900Z,13.77
2022-12-26T15:15:21.436Z,14.02
2022-12-26T15:18:10.732Z,14.02
2022-12-26T15:20:46.959Z,14.13
2022-12-26T15:23:48.254Z,13.38
2022-12-26T15:26:33.740Z,15.43
2022-12-26T15:29:19.396Z,13.30
2022-12-26T15:32:18.321Z,14.70
2022-12-26T15:34:46.001Z,13.27
2022-12-26T15:37:28.815Z,12.10
2022-12-26T15:40:10.667Z,13.73
2022-12-26T15:42:59.804Z,12.07
2022-12-26T15:45:30.841Z,18.23
2022-12-26T15:48:03.263Z,21.73
2022-12-26T15:50:45.990Z,19.85
2022-12-26T15:53:33.081Z,41.28
2022-12-26T15:56:20.081Z,27.52
2022-12-26T15:59:12.057Z,191.20
2022-12-26T16:01:45.464Z,98.90
2022-12-26T16:04:26.968Z,75.70
2022-12-26T16:06:54.579Z,27.25
2022-12-26T16:09:43.962Z,13.85
2022-12-26T16:12:20.040Z,13.15
2022-12-26T16:14:47.496Z,12.82
2022-12-26T16:17:14.906Z,12.13
2022-12-26T16:19:45.367Z,13.30
2022-12-26T16:22:49.729Z,18.63
2022-12-26T16:25:21.852Z,24.70
2022-12-26T16:27:57.307Z,24.80
2022-12-26T16:30:28.327Z,18.42
2022-12-26T16:32:56.389Z,29.50
2022-12-26T16:35:35.239Z,32.15
2022-12-26T16:38:05.425Z,21.25
2022-12-26T16:40:38.465Z,33.75
2022-12-26T16:43:23.369Z,30.52
2022-12-26T16:45:53.060Z,19.50
2022-12-26T16:48:26.126Z,12.02
2022-12-26T16:50:57.027Z,11.48
2022-12-26T16:53:45.204Z,16.02
2022-12-26T16:56:22.082Z,35.88
2022-12-26T16:58:58.678Z,47.97
2022-12-26T17:01:30.698Z,43.25
2022-12-26T17:04:06.207Z,49.90
2022-12-26T17:06:37.458Z,41.90
2022-12-26T17:09:16.932Z,29.10
2022-12-26T17:11:59.235Z,24.63
2022-12-26T17:14:39.891Z,23.65
2022-12-26T17:17:34.956Z,25.27
2022-12-26T17:20:29.561Z,22.45
2022-12-26T17:22:57.146Z,15.23
2022-12-26T17:25:30.649Z,15.63
2022-12-26T17:28:15.167Z,16.30
2022-12-26T17:30:48.803Z,15.50
2022-12-26T17:33:26.973Z,13.68
2022-12-26T17:36:52.531Z,20.83
2022-12-26T17:38:50.842Z,25.03
2022-12-26T17:41:18.831Z,21.45
2022-12-26T17:43:47.180Z,20.15
2022-12-26T17:46:17.503Z,18.20
2022-12-26T17:48:45.316Z,17.40
2022-12-26T17:51:17.875Z,16.05
2022-12-26T17:53:51.103Z,14.38
2022-12-26T17:56:22.834Z,11.20
2022-12-26T17:58:50.530Z,11.25
2022-12-26T18:01:21.764Z,11.27
2022-12-26T18:03:50.451Z,12.68
2022-12-26T18:06:18.406Z,14.15
2022-12-26T18:08:45.795Z,13.80
2022-12-26T18:11:14.635Z,12.77
2022-12-26T18:13:43.317Z,13.82
2022-12-26T18:16:19.521Z,13.52
2022-12-26T18:18:47.986Z,13.77
2022-12-26T18:21:16.434Z,15.13
2022-12-26T18:23:44.723Z,16.10
2022-12-26T18:26:19.876Z,17.95
2022-12-26T18:28:50.180Z,21.55
2022-12-26T18:31:18.475Z,18.95
2022-12-26T18:33:46.043Z,17.33
2022-12-26T18:36:15.386Z,17.63
2022-12-26T18:38:43.267Z,15.25
2022-12-26T18:41:19.202Z,15.52
2022-12-26T18:43:47.696Z,15.70
2022-12-26T18:46:23.351Z,16.40
2022-12-26T18:48:54.181Z,17.52
2022-12-26T18:51:22.121Z,15.60
2022-12-26T18:53:49.687Z,13.13
2022-12-26T18:56:20.653Z,11.85
2022-12-26T18:58:54.077Z,11.88
2022-12-26T19:01:26.358Z,12.45
2022-12-26T19:03:54.287Z,15.57
2022-12-26T19:06:25.299Z,17.15
2022-12-26T19:08:53.169Z,18.17
2022-12-26T19:11:21.818Z,17.90
2022-12-26T19:13:49.428Z,16.02
2022-12-26T19:16:20.867Z,17.25
2022-12-26T19:18:50.479Z,12.35
2022-12-26T19:21:18.801Z,17.48
2022-12-26T19:23:48.528Z,16.85
2022-12-26T19:26:18.069Z,12.15
2022-12-26T19:28:50.170Z,10.93
2022-12-26T19:31:19.753Z,10.90
2022-12-26T19:33:47.747Z,10.93
2022-12-26T19:36:15.771Z,16.88
2022-12-26T19:38:43.210Z,12.50
2022-12-26T19:41:13.580Z,12.18
2022-12-26T19:43:41.579Z,12.05
2022-12-26T19:46:12.251Z,11.43
2022-12-26T19:48:39.812Z,11.55
2022-12-26T19:51:11.431Z,12.20
2022-12-26T19:53:39.932Z,11.93
2022-12-26T19:56:12.230Z,10.82
2022-12-26T19:58:39.903Z,10.68
2022-12-26T20:01:15.382Z,10.90
2022-12-26T20:03:43.306Z,11.10
2022-12-26T20:06:17.106Z,11.50
2022-12-26T20:08:46.061Z,11.35
2022-12-26T20:11:18.904Z,11.90
2022-12-26T20:13:47.120Z,12.18
2022-12-26T20:16:45.987Z,12.82
2022-12-26T20:19:05.913Z,15.32
2022-12-26T20:21:33.726Z,13.15
2022-12-26T20:24:02.002Z,13.00
2022-12-26T20:26:29.854Z,10.80
2022-12-26T20:29:01.998Z,11.13
2022-12-26T20:31:32.155Z,11.75
2022-12-26T20:34:00.041Z,11.98
2022-12-26T20:36:30.973Z,11.63
2022-12-26T20:39:00.873Z,11.85
2022-12-26T20:41:29.683Z,12.68
2022-12-26T20:43:57.562Z,12.20
2022-12-26T20:46:28.691Z,11.88
2022-12-26T20:49:01.503Z,12.60
2022-12-26T20:51:36.986Z,12.95
2022-12-26T20:54:07.653Z,11.77
2022-12-26T20:56:36.585Z,12.73
2022-12-26T20:59:05.788Z,12.95
2022-12-26T21:01:34.127Z,12.90
2022-12-26T21:04:01.912Z,11.75
2022-12-26T21:06:35.444Z,11.30
2022-12-26T21:09:04.405Z,11.18
2022-12-26T21:11:34.872Z,10.82
2022-12-26T21:14:08.024Z,12.55
2022-12-26T21:16:39.375Z,12.40
2022-12-26T21:19:14.288Z,14.68
2022-12-26T21:21:46.125Z,10.48
2022-12-26T21:24:26.078Z,11.30
2022-12-26T21:26:55.067Z,14.10
2022-12-26T21:29:32.594Z,10.50
2022-12-26T21:32:04.159Z,9.93
2022-12-26T21:34:33.684Z,10.82
2022-12-26T21:37:21.009Z,9.75
2022-12-26T21:39:49.746Z,10.25
2022-12-26T21:42:17.495Z,9.77
2022-12-26T21:44:44.856Z,9.07
2022-12-26T21:47:12.608Z,7.47
2022-12-26T21:49:39.999Z,8.45
2022-12-26T21:52:08.072Z,7.97
2022-12-26T21:54:54.355Z,9.07
2022-12-26T21:57:23.285Z,8.25
2022-12-26T21:59:59.960Z,6.72
2022-12-26T22:02:56.521Z,6.95
2022-12-26T22:05:28.659Z,7.53
2022-12-26T22:07:59.885Z,6.93
2022-12-26T22:10:49.767Z,6.28
2022-12-26T22:13:19.084Z,7.38
2022-12-26T22:16:04.968Z,7.18
2022-12-26T22:18:42.162Z,7.35
2022-12-26T22:21:19.100Z,7.10
2022-12-26T22:23:50.583Z,6.20
2022-12-26T22:26:19.554Z,7.63
2022-12-26T22:28:47.762Z,7.80
2022-12-26T22:31:28.026Z,6.88
2022-12-26T22:34:01.434Z,6.50
2022-12-26T22:36:30.664Z,6.72
2022-12-26T22:38:59.401Z,7.15
2022-12-26T22:41:27.888Z,7.70
2022-12-26T22:43:56.422Z,7.82
2022-12-26T22:46:24.414Z,9.05
2022-12-26T22:48:52.560Z,9.25
2022-12-26T22:51:25.422Z,6.78
2022-12-26T22:53:55.325Z,9.05
2022-12-26T22:56:23.191Z,7.30
2022-12-26T22:58:55.051Z,7.22
2022-12-26T23:01:25.354Z,7.32
2022-12-26T23:03:53.056Z,6.25
2022-12-26T23:06:26.457Z,7.47
2022-12-26T23:08:57.064Z,6.85
2022-12-26T23:11:34.667Z,6.35
2022-12-26T23:14:06.283Z,6.20
2022-12-26T23:16:58.120Z,6.75
2022-12-26T23:19:58.552Z,6.53
2022-12-26T23:22:26.122Z,6.80
2022-12-26T23:24:53.714Z,6.47
2022-12-26T23:27:39.781Z,6.68
2022-12-26T23:30:19.811Z,6.20
2022-12-26T23:32:51.934Z,6.05
2022-12-26T23:35:21.884Z,6.20
2022-12-26T23:37:49.182Z,6.82
2022-12-26T23:40:18.555Z,6.18
2022-12-26T23:42:46.273Z,6.05
2022-12-26T23:45:15.101Z,7.63
2022-12-26T23:47:45.073Z,7.53
2022-12-26T23:50:14.470Z,6.80
2022-12-26T23:52:42.499Z,6.90
2022-12-26T23:55:10.727Z,7.03
2022-12-26T23:57:38.190Z,7.50
